createdAt,value
2023-04-17T00:00:55.735Z,99167.16
2023-04-17T00:03:58.798Z,99165.41
2023-04-17T00:07:03.579Z,99168.94
2023-04-17T00:10:06.695Z,99169.91
2023-04-17T00:13:08.282Z,99174.38
2023-04-17T00:16:13.874Z,99170.91
2023-04-17T00:19:17.186Z,99177.00
2023-04-17T00:22:18.824Z,99170.78
2023-04-17T00:25:20.760Z,99174.25
2023-04-17T00:28:22.633Z,99176.88
2023-04-17T00:31:24.452Z,99169.72
2023-04-17T00:34:28.019Z,99175.00
2023-04-17T00:37:29.679Z,99171.47
2023-04-17T00:40:31.387Z,99165.28
2023-04-17T00:43:33.083Z,99161.81
2023-04-17T00:46:34.651Z,99166.28
2023-04-17T00:49:38.766Z,99161.94
2023-04-17T00:52:40.560Z,99167.25
2023-04-17T00:55:43.090Z,99169.94
2023-04-17T00:58:45.046Z,99172.59
2023-04-17T01:01:47.128Z,99168.16
2023-04-17T01:04:50.227Z,99161.97
2023-04-17T01:07:54.011Z,99168.22
2023-04-17T01:10:55.621Z,99165.56
2023-04-17T01:13:57.312Z,99170.91
2023-04-17T01:16:59.597Z,99163.81
2023-04-17T01:20:06.514Z,99165.59
2023-04-17T01:23:08.312Z,99165.63
2023-04-17T01:26:12.105Z,99169.19
2023-04-17T01:29:13.875Z,99163.97
2023-04-17T01:32:16.658Z,99175.56
2023-04-17T01:35:18.304Z,99174.59
2023-04-17T01:38:19.865Z,99174.69
2023-04-17T01:41:23.027Z,99170.28
2023-04-17T01:44:24.678Z,99172.94
2023-04-17T01:47:26.279Z,99171.19
2023-04-17T01:50:27.963Z,99181.88
2023-04-17T01:53:31.107Z,99173.06
2023-04-17T01:56:34.716Z,99181.94
2023-04-17T01:59:36.536Z,99182.81
2023-04-17T02:02:38.308Z,99181.00
2023-04-17T02:05:40.095Z,99184.59
2023-04-17T02:08:41.886Z,99182.91
2023-04-17T02:11:45.607Z,99183.84
2023-04-17T02:14:47.160Z,99184.78
2023-04-17T02:17:48.947Z,99179.50
2023-04-17T02:20:50.533Z,99180.41
2023-04-17T02:23:52.142Z,99184.00
2023-04-17T02:26:56.470Z,99181.25
2023-04-17T02:29:58.067Z,99183.88
2023-04-17T02:33:00.236Z,99178.66
2023-04-17T02:36:02.216Z,99180.53
2023-04-17T02:39:12.123Z,99179.63
2023-04-17T02:42:16.513Z,99184.06
2023-04-17T02:45:18.140Z,99181.44
2023-04-17T02:48:19.762Z,99178.75
2023-04-17T02:51:21.433Z,99175.19
2023-04-17T02:54:23.441Z,99177.81
2023-04-17T02:57:26.550Z,99180.41
2023-04-17T03:00:28.870Z,99179.50
2023-04-17T03:03:35.618Z,99184.84
2023-04-17T03:06:40.757Z,99181.25
2023-04-17T03:09:42.801Z,99185.63
2023-04-17T03:12:46.120Z,99184.94
2023-04-17T03:15:48.167Z,99191.19
2023-04-17T03:18:49.774Z,99185.09
2023-04-17T03:21:51.633Z,99187.91
2023-04-17T03:24:53.165Z,99187.13
2023-04-17T03:27:57.950Z,99191.66
2023-04-17T03:31:07.542Z,99186.41
2023-04-17T03:34:10.285Z,99194.44
2023-04-17T03:37:12.632Z,99193.59
2023-04-17T03:40:14.172Z,99197.16
2023-04-17T03:43:20.175Z,99193.69
2023-04-17T03:46:21.862Z,99195.50
2023-04-17T03:49:23.871Z,99199.09
2023-04-17T03:52:27.193Z,99197.34
2023-04-17T03:55:32.648Z,99195.69
2023-04-17T03:58:36.127Z,99198.28
2023-04-17T04:01:39.149Z,99199.16
2023-04-17T04:04:50.793Z,99199.09
2023-04-17T04:07:52.530Z,99205.41
2023-04-17T04:11:09.586Z,99210.72
2023-04-17T04:14:15.385Z,99208.97
2023-04-17T04:17:21.666Z,99212.66
2023-04-17T04:20:23.655Z,99210.94
2023-04-17T04:23:31.103Z,99217.19
2023-04-17T04:26:33.366Z,99218.16
2023-04-17T04:29:37.945Z,99219.03
2023-04-17T04:32:45.747Z,99215.44
2023-04-17T04:35:48.669Z,99218.03
2023-04-17T04:38:50.666Z,99213.56
2023-04-17T04:42:06.189Z,99226.75
2023-04-17T04:45:20.689Z,99220.66
2023-04-17T04:48:22.404Z,99224.19
2023-04-17T04:51:24.165Z,99218.13
2023-04-17T04:54:26.020Z,99226.97
2023-04-17T04:57:31.970Z,99231.44
2023-04-17T05:00:37.933Z,99234.13
2023-04-17T05:03:40.896Z,99233.25
2023-04-17T05:06:44.853Z,99242.09
2023-04-17T05:09:47.481Z,99248.28
2023-04-17T05:12:51.739Z,99248.25
2023-04-17T05:15:55.029Z,99251.72
2023-04-17T05:19:01.325Z,99251.81
2023-04-17T05:22:29.795Z,99263.28
2023-04-17T05:25:43.151Z,99267.66
2023-04-17T05:28:45.405Z,99263.28
2023-04-17T05:31:52.928Z,99260.63
2023-04-17T05:35:17.586Z,99273.81
2023-04-17T05:38:19.378Z,99278.25
2023-04-17T05:41:21.580Z,99278.25
2023-04-17T05:44:23.096Z,99289.75
2023-04-17T05:47:26.038Z,99288.00
2023-04-17T05:50:28.297Z,99283.53
2023-04-17T05:53:31.179Z,99279.97
2023-04-17T05:56:34.106Z,99286.09
2023-04-17T05:59:36.680Z,99285.13
2023-04-17T06:02:41.227Z,99286.88
2023-04-17T06:05:43.079Z,99296.63
2023-04-17T06:08:44.999Z,99294.78
2023-04-17T06:11:46.858Z,99299.16
2023-04-17T06:14:48.485Z,99298.19
2023-04-17T06:17:55.045Z,99303.50
2023-04-17T06:20:56.766Z,99303.50
2023-04-17T06:23:58.284Z,99307.00
2023-04-17T06:26:59.902Z,99306.94
2023-04-17T06:30:01.821Z,99314.06
2023-04-17T06:33:08.419Z,99317.44
2023-04-17T06:36:13.425Z,99319.94
2023-04-17T06:39:23.156Z,99324.19
2023-04-17T06:42:25.054Z,99325.69
2023-04-17T06:45:34.328Z,99329.16
2023-04-17T06:48:37.180Z,99329.94
2023-04-17T06:51:38.801Z,99333.44
2023-04-17T06:54:40.360Z,99335.09
2023-04-17T06:57:42.227Z,99341.97
2023-04-17T07:00:44.008Z,99341.91
2023-04-17T07:03:47.392Z,99339.16
2023-04-17T07:06:49.297Z,99343.56
2023-04-17T07:09:51.533Z,99340.88
2023-04-17T07:12:53.028Z,99334.66
2023-04-17T07:15:55.233Z,99342.50
2023-04-17T07:18:58.420Z,99353.88
2023-04-17T07:22:00.796Z,99352.84
2023-04-17T07:25:02.321Z,99353.59
2023-04-17T07:28:04.622Z,99352.13
2023-04-17T07:31:08.800Z,99352.03
2023-04-17T07:34:11.736Z,99358.53
2023-04-17T07:37:15.318Z,99362.31
2023-04-17T07:40:17.384Z,99363.97
2023-04-17T07:43:18.872Z,99365.31
2023-04-17T07:46:20.485Z,99369.06
2023-04-17T07:49:23.600Z,99366.94
2023-04-17T07:52:25.335Z,99370.09
2023-04-17T07:55:26.847Z,99370.03
2023-04-17T07:58:28.351Z,99381.50
2023-04-17T08:01:29.951Z,99379.53
2023-04-17T08:04:33.270Z,99374.03
2023-04-17T08:07:35.436Z,99377.53
2023-04-17T08:10:37.039Z,99375.50
2023-04-17T08:13:38.548Z,99380.81
2023-04-17T08:16:40.393Z,99391.47
2023-04-17T08:19:43.297Z,99393.50
2023-04-17T08:22:46.053Z,99389.97
2023-04-17T08:25:47.770Z,99387.38
2023-04-17T08:28:49.571Z,99384.66
2023-04-17T08:31:57.429Z,99393.25
2023-04-17T08:35:11.527Z,99399.31
2023-04-17T08:38:14.879Z,99401.56
2023-04-17T08:41:23.206Z,99405.63
2023-04-17T08:44:25.182Z,99394.97
2023-04-17T08:47:27.192Z,99397.09
2023-04-17T08:50:30.870Z,99406.44
2023-04-17T08:53:32.490Z,99400.59
2023-04-17T08:56:33.964Z,99399.66
2023-04-17T08:59:35.655Z,99402.16
2023-04-17T09:02:51.723Z,99399.59
2023-04-17T09:05:57.172Z,99402.09
2023-04-17T09:09:00.253Z,99395.28
2023-04-17T09:12:08.494Z,99399.16
2023-04-17T09:15:16.781Z,99402.47
2023-04-17T09:18:23.306Z,99413.53
2023-04-17T09:21:27.945Z,99411.81
2023-04-17T09:24:33.053Z,99406.94
2023-04-17T09:27:34.763Z,99408.94
2023-04-17T09:30:37.158Z,99405.94
2023-04-17T09:33:55.519Z,99408.50
2023-04-17T09:36:58.861Z,99411.47
2023-04-17T09:40:01.263Z,99408.31
2023-04-17T09:43:04.057Z,99411.69
2023-04-17T09:46:06.470Z,99412.72
2023-04-17T09:49:09.941Z,99414.78
2023-04-17T09:52:13.495Z,99413.38
2023-04-17T09:55:16.385Z,99417.47
2023-04-17T09:58:18.111Z,99417.25
2023-04-17T10:01:20.129Z,99420.03
2023-04-17T10:04:23.325Z,99414.00
2023-04-17T10:07:29.996Z,99407.59
2023-04-17T10:10:33.863Z,99408.66
2023-04-17T10:13:38.713Z,99416.69
2023-04-17T10:16:42.736Z,99421.78
2023-04-17T10:19:44.586Z,99410.56
2023-04-17T10:22:54.201Z,99407.44
2023-04-17T10:26:14.764Z,99412.53
2023-04-17T10:29:16.459Z,99405.06
2023-04-17T10:32:18.318Z,99407.09
2023-04-17T10:35:33.967Z,99400.81
2023-04-17T10:38:36.992Z,99405.69
2023-04-17T10:42:01.591Z,99401.84
2023-04-17T10:45:17.706Z,99402.47
2023-04-17T10:48:26.656Z,99385.97
2023-04-17T10:51:41.772Z,99389.56
2023-04-17T10:54:58.290Z,99395.97
2023-04-17T10:58:03.055Z,99389.81
2023-04-17T11:01:09.362Z,99387.91
2023-04-17T11:04:18.397Z,99372.72
2023-04-17T11:07:20.166Z,99382.28
2023-04-17T11:10:23.039Z,99375.81
2023-04-17T11:13:31.467Z,99383.63
2023-04-17T11:16:33.794Z,99379.06
2023-04-17T11:19:35.738Z,99378.72
2023-04-17T11:22:37.355Z,99378.41
2023-04-17T11:25:40.168Z,99385.28
2023-04-17T11:28:43.060Z,99384.38
2023-04-17T11:31:45.165Z,99377.44
2023-04-17T11:34:47.115Z,99382.28
2023-04-17T11:38:08.255Z,99374.75
2023-04-17T11:41:10.510Z,99377.41
2023-04-17T11:44:13.717Z,99385.59
2023-04-17T11:47:15.270Z,99376.13
2023-04-17T11:50:17.004Z,99381.06
2023-04-17T11:53:18.519Z,99380.81
2023-04-17T11:56:21.187Z,99380.63
2023-04-17T11:59:31.010Z,99374.53
2023-04-17T12:02:33.759Z,99376.31
2023-04-17T12:05:35.933Z,99371.78
2023-04-17T12:08:45.138Z,99377.63
2023-04-17T12:11:46.990Z,99371.34
2023-04-17T12:14:49.852Z,99378.97
2023-04-17T12:17:51.537Z,99377.00
2023-04-17T12:20:53.124Z,99369.34
2023-04-17T12:23:54.786Z,99369.41
2023-04-17T12:26:57.200Z,99378.06
2023-04-17T12:30:00.451Z,99370.56
2023-04-17T12:33:02.226Z,99371.31
2023-04-17T12:36:05.249Z,99363.16
2023-04-17T12:39:06.857Z,99366.47
2023-04-17T12:42:08.736Z,99367.81
2023-04-17T12:45:11.772Z,99376.22
2023-04-17T12:48:15.236Z,99360.84
2023-04-17T12:51:16.885Z,99359.88
2023-04-17T12:54:18.567Z,99367.31
2023-04-17T12:57:20.865Z,99357.13
2023-04-17T13:00:23.980Z,99363.00
2023-04-17T13:03:25.923Z,99362.25
2023-04-17T13:06:28.251Z,99360.31
2023-04-17T13:09:29.769Z,99356.75
2023-04-17T13:12:31.575Z,99351.97
2023-04-17T13:15:34.994Z,99356.19
2023-04-17T13:18:37.582Z,99359.75
2023-04-17T13:21:39.245Z,99355.44
2023-04-17T13:24:41.920Z,99358.72
2023-04-17T13:27:43.735Z,99353.69
2023-04-17T13:30:46.753Z,99351.47
2023-04-17T13:33:49.056Z,99347.13
2023-04-17T13:36:50.918Z,99351.63
2023-04-17T13:39:52.773Z,99336.41
2023-04-17T13:42:55.227Z,99336.41
2023-04-17T13:45:58.323Z,99334.09
2023-04-17T13:49:00.423Z,99321.78
2023-04-17T13:52:05.372Z,99320.03
2023-04-17T13:55:11.894Z,99322.34
2023-04-17T13:58:13.525Z,99314.84
2023-04-17T14:01:17.490Z,99315.47
2023-04-17T14:04:19.281Z,99317.41
2023-04-17T14:07:21.346Z,99315.34
2023-04-17T14:10:23.329Z,99309.13
2023-04-17T14:13:25.211Z,99307.84
2023-04-17T14:16:28.467Z,99301.78
2023-04-17T14:19:30.068Z,99304.13
2023-04-17T14:22:31.619Z,99309.75
2023-04-17T14:25:33.604Z,99302.22
2023-04-17T14:28:35.143Z,99302.81
2023-04-17T14:31:38.247Z,99293.28
2023-04-17T14:34:40.071Z,99288.41
2023-04-17T14:37:42.595Z,99279.66
2023-04-17T14:40:44.182Z,99288.63
2023-04-17T14:43:45.769Z,99288.97
2023-04-17T14:46:48.969Z,99290.91
2023-04-17T14:49:51.099Z,99285.03
2023-04-17T14:52:52.847Z,99292.91
2023-04-17T14:55:54.652Z,99285.03
2023-04-17T14:58:56.188Z,99286.34
2023-04-17T15:01:59.401Z,99280.06
2023-04-17T15:05:01.017Z,99274.69
2023-04-17T15:08:02.612Z,99278.00
2023-04-17T15:11:04.244Z,99272.31
2023-04-17T15:14:06.235Z,99269.16
2023-04-17T15:17:09.637Z,99266.28
2023-04-17T15:20:11.561Z,99265.22
2023-04-17T15:23:13.172Z,99270.91
2023-04-17T15:26:14.956Z,99261.63
2023-04-17T15:29:16.522Z,99266.34
2023-04-17T15:32:19.725Z,99268.38
2023-04-17T15:35:21.610Z,99262.25
2023-04-17T15:38:23.596Z,99268.44
2023-04-17T15:41:25.416Z,99264.00
2023-04-17T15:44:27.115Z,99264.75
2023-04-17T15:47:30.139Z,99258.16
2023-04-17T15:50:31.784Z,99250.50
2023-04-17T15:53:33.344Z,99252.50
2023-04-17T15:56:34.963Z,99259.88
2023-04-17T15:59:36.598Z,99255.31
2023-04-17T16:02:39.737Z,99249.41
2023-04-17T16:05:41.739Z,99244.94
2023-04-17T16:08:43.399Z,99249.44
2023-04-17T16:11:45.098Z,99250.13
2023-04-17T16:14:47.444Z,99255.31
2023-04-17T16:17:50.552Z,99260.47
2023-04-17T16:20:52.222Z,99256.50
2023-04-17T16:23:53.975Z,99261.31
2023-04-17T16:26:57.202Z,99258.31
2023-04-17T16:29:59.045Z,99259.75
2023-04-17T16:33:02.720Z,99263.34
2023-04-17T16:36:04.618Z,99255.78
2023-04-17T16:39:08.612Z,99263.56
2023-04-17T16:42:10.560Z,99270.50
2023-04-17T16:45:12.394Z,99261.31
2023-04-17T16:48:16.198Z,99257.84
2023-04-17T16:51:20.337Z,99260.88
2023-04-17T16:54:25.851Z,99261.19
2023-04-17T16:57:27.600Z,99261.78
2023-04-17T17:00:32.607Z,99261.44
2023-04-17T17:03:37.777Z,99259.22
2023-04-17T17:06:39.529Z,99262.94
2023-04-17T17:09:41.788Z,99262.59
2023-04-17T17:12:43.864Z,99261.94
2023-04-17T17:15:45.373Z,99271.78
2023-04-17T17:18:49.563Z,99275.25
2023-04-17T17:21:51.120Z,99270.16
2023-04-17T17:24:53.019Z,99270.28
2023-04-17T17:27:54.643Z,99264.56
2023-04-17T17:31:00.605Z,99270.22
2023-04-17T17:34:16.561Z,99271.13
2023-04-17T17:37:25.692Z,99270.53
2023-04-17T17:40:27.699Z,99278.69
2023-04-17T17:43:30.160Z,99268.28
2023-04-17T17:46:34.219Z,99273.84
2023-04-17T17:49:38.419Z,99274.03
2023-04-17T17:52:39.974Z,99281.31
2023-04-17T17:55:41.712Z,99277.78
2023-04-17T17:58:43.520Z,99278.97
2023-04-17T18:01:45.509Z,99281.94
2023-04-17T18:04:48.733Z,99287.78
2023-04-17T18:07:50.618Z,99285.38
2023-04-17T18:10:52.533Z,99284.69
2023-04-17T18:13:54.146Z,99284.16
2023-04-17T18:16:55.819Z,99292.50
2023-04-17T18:19:58.797Z,99282.78
2023-04-17T18:23:00.741Z,99281.19
2023-04-17T18:26:03.070Z,99286.69
2023-04-17T18:29:04.658Z,99287.69
2023-04-17T18:32:06.420Z,99286.06
2023-04-17T18:35:09.965Z,99282.69
2023-04-17T18:38:12.029Z,99296.88
2023-04-17T18:41:13.767Z,99296.06
2023-04-17T18:44:16.294Z,99298.59
2023-04-17T18:47:18.150Z,99302.13
2023-04-17T18:50:21.473Z,99307.47
2023-04-17T18:53:23.066Z,99312.88
2023-04-17T18:56:24.879Z,99311.16
2023-04-17T18:59:28.069Z,99317.56
2023-04-17T19:02:30.007Z,99325.88
2023-04-17T19:05:32.943Z,99323.47
2023-04-17T19:08:34.925Z,99324.50
2023-04-17T19:11:36.608Z,99316.66
2023-04-17T19:14:38.205Z,99332.59
2023-04-17T19:17:40.086Z,99338.00
2023-04-17T19:20:43.052Z,99331.06
2023-04-17T19:23:45.060Z,99334.94
2023-04-17T19:26:48.105Z,99344.19
2023-04-17T19:29:49.578Z,99354.47
2023-04-17T19:32:51.201Z,99355.72
2023-04-17T19:35:54.303Z,99354.34
2023-04-17T19:38:59.141Z,99359.94
2023-04-17T19:42:01.332Z,99368.28
2023-04-17T19:45:02.866Z,99368.50
2023-04-17T19:48:04.876Z,99374.03
2023-04-17T19:51:07.866Z,99377.81
2023-04-17T19:54:11.921Z,99381.69
2023-04-17T19:57:13.653Z,99380.97
2023-04-17T20:00:15.736Z,99389.09
2023-04-17T20:03:18.456Z,99390.16
2023-04-17T20:06:21.604Z,99389.50
2023-04-17T20:09:23.371Z,99393.31
2023-04-17T20:12:25.537Z,99396.97
2023-04-17T20:15:27.445Z,99396.25
2023-04-17T20:18:29.457Z,99407.06
2023-04-17T20:21:32.604Z,99401.91
2023-04-17T20:24:34.593Z,99409.00
2023-04-17T20:27:36.157Z,99411.75
2023-04-17T20:30:37.721Z,99410.00
2023-04-17T20:33:39.373Z,99403.09
2023-04-17T20:36:42.672Z,99408.50
2023-04-17T20:39:44.409Z,99401.56
2023-04-17T20:42:46.920Z,99405.25
2023-04-17T20:45:49.373Z,99400.09
2023-04-17T20:48:51.025Z,99400.25
2023-04-17T20:51:54.152Z,99394.19
2023-04-17T20:54:55.968Z,99400.50
2023-04-17T20:57:57.418Z,99405.09
2023-04-17T21:01:01.715Z,99402.56
2023-04-17T21:04:03.516Z,99397.50
2023-04-17T21:07:06.471Z,99400.22
2023-04-17T21:10:09.247Z,99405.75
2023-04-17T21:13:10.953Z,99400.50
2023-04-17T21:16:13.961Z,99413.91
2023-04-17T21:19:15.639Z,99418.47
2023-04-17T21:22:18.748Z,99410.59
2023-04-17T21:25:20.251Z,99418.59
2023-04-17T21:28:22.058Z,99423.13
2023-04-17T21:31:24.453Z,99428.41
2023-04-17T21:34:26.188Z,99425.78
2023-04-17T21:37:29.201Z,99424.97
2023-04-17T21:40:33.458Z,99430.34
2023-04-17T21:43:36.030Z,99428.66
2023-04-17T21:46:37.812Z,99428.66
2023-04-17T21:49:39.830Z,99427.03
2023-04-17T21:52:42.718Z,99427.06
2023-04-17T21:55:44.914Z,99427.06
2023-04-17T21:58:46.461Z,99423.69
2023-04-17T22:01:48.258Z,99421.97
2023-04-17T22:04:50.003Z,99421.97
2023-04-17T22:07:55.292Z,99418.53
2023-04-17T22:10:57.119Z,99417.69
2023-04-17T22:13:58.664Z,99414.19
2023-04-17T22:17:00.432Z,99415.19
2023-04-17T22:20:02.173Z,99416.19
2023-04-17T22:23:05.178Z,99413.63
2023-04-17T22:26:06.734Z,99418.03
2023-04-17T22:29:08.288Z,99410.97
2023-04-17T22:32:09.866Z,99403.97
2023-04-17T22:35:11.771Z,99409.31
2023-04-17T22:38:14.678Z,99408.44
2023-04-17T22:41:16.187Z,99402.31
2023-04-17T22:44:17.709Z,99403.22
2023-04-17T22:47:19.396Z,99402.44
2023-04-17T22:50:21.821Z,99407.75
2023-04-17T22:53:24.950Z,99409.53
2023-04-17T22:56:26.666Z,99401.63
2023-04-17T22:59:28.441Z,99407.78
2023-04-17T23:02:30.020Z,99416.66
2023-04-17T23:05:32.065Z,99417.53
2023-04-17T23:08:34.893Z,99410.47
2023-04-17T23:11:36.501Z,99413.22
2023-04-17T23:14:38.096Z,99409.66
2023-04-17T23:17:39.774Z,99414.09
2023-04-17T23:20:41.896Z,99412.34
2023-04-17T23:23:48.168Z,99408.84
2023-04-17T23:26:50.355Z,99410.59
2023-04-17T23:29:51.951Z,99393.88
2023-04-17T23:32:54.434Z,99392.97
2023-04-17T23:35:55.983Z,99392.03
2023-04-17T23:39:00.321Z,99392.91
2023-04-17T23:42:07.000Z,99393.78
2023-04-17T23:45:09.001Z,99391.09
2023-04-17T23:48:10.765Z,99394.56
2023-04-17T23:51:12.450Z,99405.13
2023-04-17T23:54:15.748Z,99405.06
2023-04-17T23:57:17.585Z,99397.16
